Time;durP1;ratioP1;P1;durP2;ratioP2;P2;SDS_P1;SDS_P2;PMS_P1;PMS_P2;Temp;Humidity;BMP_temperature;BMP_pressure;BME280_temperature;BME280_humidity;BME280_pressure;Samples;Min_cycle;Max_cycle;Signal;HPM_P1;HPM_P2
2022/09/19 04:15:38;;;;;;;4.13;2.17;;;;;;;14.31;77.10;96976.84;6247916;23;20086;-89
2022/09/19 04:43:54;;;;;;;1.85;1.60;;;;;;;13.80;70.85;96989.00;6157390;23;20056;-93
2022/09/19 04:47:38;;;;;;;4.22;1.70;;;;;;;13.83;70.61;96987.44;6139466;23;20024;-90
2022/09/19 04:51:12;;;;;;;4.75;1.70;;;;;;;13.77;71.28;96975.28;6133866;23;20025;-92
2022/09/19 04:53:39;;;;;;;6.05;1.58;;;;;;;13.80;71.06;96985.47;6158346;23;20028;-90
2022/09/19 04:57:00;;;;;;;6.47;1.85;;;;;;;13.75;71.44;96989.41;6141811;23;20027;-91
2022/09/19 04:59:28;;;;;;;6.00;1.95;;;;;;;13.76;72.08;96992.94;6132139;23;20062;-90
2022/09/19 05:01:57;;;;;;;9.50;2.08;;;;;;;13.77;72.52;96969.78;6138467;23;20016;-91
2022/09/19 05:04:25;;;;;;;2.88;2.00;;;;;;;13.77;71.96;96958.81;6169326;23;20023;-92
2022/09/19 05:06:53;;;;;;;8.20;1.95;;;;;;;13.76;72.28;96963.50;6194476;23;20040;-90
2022/09/19 05:09:45;;;;;;;4.22;1.75;;;;;;;13.83;72.25;96985.47;6219405;23;20473;-93
2022/09/19 05:12:12;;;;;;;4.15;1.85;;;;;;;13.74;71.48;96984.28;6194372;23;20016;-91
2022/09/19 05:14:46;;;;;;;6.40;2.13;;;;;;;13.75;71.65;96983.91;6224444;23;20358;-92
2022/09/19 05:17:13;;;;;;;3.13;1.60;;;;;;;13.69;71.40;96955.28;6170648;23;20016;-91
2022/09/19 05:19:40;;;;;;;6.15;1.60;;;;;;;13.72;71.69;96978.44;6195087;23;20020;-92
2022/09/19 05:23:13;;;;;;;2.88;1.88;;;;;;;13.86;70.94;96983.91;6218927;22;20019;-90
2022/09/19 05:25:41;;;;;;;3.05;2.00;;;;;;;13.73;69.62;96972.53;6195318;23;20020;-93
2022/09/19 05:32:34;;;;;;;10.43;1.60;;;;;;;13.82;69.62;96980.41;6245453;22;20032;-90
2022/09/19 05:35:31;;;;;;;6.95;1.50;;;;;;;13.35;68.69;96919.97;6245631;23;20404;-91
2022/09/19 05:38:23;;;;;;;2.72;1.40;;;;;;;13.63;68.64;96976.06;6219680;23;20043;-91
2022/09/19 05:44:17;;;;;;;4.10;1.60;;;;;;;13.70;68.21;96978.81;6245096;22;20205;-92
2022/09/19 05:46:52;;;;;;;6.40;1.58;;;;;;;13.75;68.77;97000.41;6195618;23;20454;-89
2022/09/19 05:49:20;;;;;;;9.55;1.40;;;;;;;13.61;67.98;96998.41;6193317;23;20065;-91
2022/09/19 05:55:18;;;;;;;5.65;1.55;;;;;;;13.75;67.49;97010.59;6192400;23;20016;-92
2022/09/19 05:57:57;;;;;;;12.95;1.60;;;;;;;13.68;66.70;97021.56;6171711;23;20016;-91
2022/09/19 06:00:27;;;;;;;6.53;1.30;;;;;;;13.67;65.81;97009.78;6171982;23;20366;-91
2022/09/19 06:02:56;;;;;;;9.00;1.60;;;;;;;13.69;66.57;97001.16;6172410;23;20022;-93
2022/09/19 06:05:24;;;;;;;3.80;1.20;;;;;;;13.53;66.75;97005.06;6172550;23;20023;-92
2022/09/19 06:07:58;;;;;;;17.00;1.85;;;;;;;13.47;69.11;97006.59;6194309;23;20018;-88
2022/09/19 06:10:25;;;;;;;6.40;1.20;;;;;;;13.48;70.25;97010.16;6170068;23;20016;-91
2022/09/19 06:12:55;;;;;;;5.25;1.42;;;;;;;13.48;70.03;97021.13;6247046;23;20038;-91
2022/09/19 06:16:19;;;;;;;5.15;1.20;;;;;;;13.49;69.83;97015.25;6129477;23;20024;-93
2022/09/19 06:19:11;;;;;;;1.27;1.17;;;;;;;13.13;69.26;96976.69;6128186;23;20024;-90
2022/09/19 06:21:37;;;;;;;2.85;1.23;;;;;;;13.16;69.02;97002.56;6105261;23;20021;-90
2022/09/19 06:24:16;;;;;;;3.63;1.30;;;;;;;12.97;69.83;96972.72;6152982;23;20017;-90
2022/09/19 06:31:31;;;;;;;3.17;1.52;;;;;;;13.14;70.18;97016.69;6153347;23;20072;-92
2022/09/19 06:34:55;;;;;;;2.65;2.10;;;;;;;12.66;71.02;96953.78;6153385;23;20456;-92
2022/09/19 06:37:21;;;;;;;5.57;1.50;;;;;;;13.20;68.96;97032.75;6155885;23;20025;-90
2022/09/19 06:39:48;;;;;;;9.15;1.75;;;;;;;13.28;69.82;97031.66;6176749;22;20034;-90
2022/09/19 06:42:35;;;;;;;5.32;1.27;;;;;;;13.43;68.39;97029.72;6252068;22;20020;-92
2022/09/19 06:45:40;;;;;;;5.43;1.40;;;;;;;13.39;68.39;97008.56;6130321;23;20018;-91
2022/09/19 06:48:38;;;;;;;2.63;1.30;;;;;;;13.55;67.86;97030.16;6231744;22;20016;-90
2022/09/19 06:51:40;;;;;;;7.63;1.38;;;;;;;13.43;67.38;97014.03;6154624;23;20100;-88
2022/09/19 06:54:08;;;;;;;2.72;1.15;;;;;;;13.20;65.91;96984.16;6138169;23;20018;-90
2022/09/19 06:56:34;;;;;;;4.13;1.33;;;;;;;13.59;67.31;97050.16;6122464;23;20002;-88
2022/09/19 06:59:06;;;;;;;3.50;1.20;;;;;;;13.56;66.09;97055.66;6111972;23;20115;-90
2022/09/19 07:01:34;;;;;;;3.83;1.35;;;;;;;13.34;66.24;97035.56;6105566;23;20514;-89
2022/09/19 07:04:00;;;;;;;14.45;1.10;;;;;;;13.31;65.19;97042.63;6154420;23;20023;-91
2022/09/19 07:06:44;;;;;;;3.55;0.98;;;;;;;13.29;65.83;97031.25;6103424;23;20448;-91
2022/09/19 07:09:49;;;;;;;1.70;1.00;;;;;;;13.42;65.28;97059.13;6236474;22;20024;-89
2022/09/19 07:12:15;;;;;;;4.80;1.10;;;;;;;13.13;65.07;97025.28;6249862;22;20023;-88
2022/09/19 07:15:02;;;;;;;3.38;0.88;;;;;;;13.05;66.04;97059.34;6249003;22;20024;-89
2022/09/19 07:20:00;;;;;;;1.42;0.98;;;;;;;13.08;66.16;97089.53;6275308;22;20094;-90
2022/09/19 07:23:14;;;;;;;5.60;0.88;;;;;;;12.83;65.53;97077.63;6231355;22;20015;-91
2022/09/19 07:26:30;;;;;;;1.38;1.05;;;;;;;12.68;66.05;97063.84;6245778;23;20047;-90
2022/09/19 07:29:15;;;;;;;3.17;1.30;;;;;;;12.79;66.05;97043.94;6194304;23;20012;-90
2022/09/19 07:31:43;;;;;;;5.82;1.30;;;;;;;13.06;65.58;97091.84;6194206;23;20020;-89
2022/09/19 07:34:09;;;;;;;9.35;1.10;;;;;;;12.96;66.50;97075.34;6217538;23;20020;-91
2022/09/19 07:36:45;;;;;;;7.13;1.50;;;;;;;12.87;64.19;97067.47;6192592;23;20016;-91
2022/09/19 07:39:11;;;;;;;6.10;1.40;;;;;;;12.72;64.89;97050.16;6173308;23;20012;-89
2022/09/19 07:42:04;;;;;;;4.82;1.23;;;;;;;12.90;64.45;97089.41;6204767;23;20023;-89
2022/09/19 07:45:06;;;;;;;6.18;1.48;;;;;;;12.80;63.53;97094.84;6184257;23;20458;-92
2022/09/19 07:48:11;;;;;;;1.98;1.10;;;;;;;12.70;63.62;97063.44;6142299;23;20017;-91
2022/09/19 07:50:57;;;;;;;4.25;1.20;;;;;;;12.75;63.53;97096.00;6138788;23;20099;-91
2022/09/19 07:53:32;;;;;;;3.28;0.93;;;;;;;12.58;63.17;97096.63;6111952;23;20013;-90
2022/09/19 07:58:29;;;;;;;5.50;1.30;;;;;;;12.62;64.15;97089.25;6184253;23;20036;-90
2022/09/19 08:01:02;;;;;;;9.40;1.13;;;;;;;12.61;63.71;97090.38;6110572;23;20089;-91
2022/09/19 08:03:49;;;;;;;2.55;1.35;;;;;;;12.44;62.81;97076.16;6159604;23;20021;-89
2022/09/19 08:06:19;;;;;;;7.50;1.58;;;;;;;12.45;63.68;97082.47;6204883;22;20022;-90
2022/09/19 08:08:47;;;;;;;4.30;1.30;;;;;;;12.62;63.00;97089.25;6220877;22;20020;-93
2022/09/19 08:11:35;;;;;;;9.55;1.40;;;;;;;12.46;62.87;97070.31;6276830;22;20015;-89
2022/09/19 08:23:56;;;;;;;6.63;1.30;;;;;;;12.78;63.02;97089.75;6277680;22;20046;-91
2022/09/19 08:31:45;;;;;;;5.15;1.00;;;;;;;12.82;60.75;97082.31;6280163;22;20012;-90
2022/09/19 08:34:12;;;;;;;11.88;1.60;;;;;;;12.74;61.15;97069.72;6278583;22;20023;-91
2022/09/19 09:53:06;;;;;;;5.82;1.50;;;;;;;12.11;71.59;97148.28;6245682;23;20030;-89
2022/09/19 10:04:10;;;;;;;7.50;1.50;;;;;;;12.17;71.63;97144.03;6047813;23;20076;-88
2022/09/19 10:16:02;;;;;;;3.00;1.20;;;;;;;11.84;70.60;97109.28;6189543;23;20527;-90
2022/09/19 11:12:38;;;;;;;2.45;0.90;;;;;;;11.73;76.03;97094.69;6245107;23;20027;-89
2022/09/19 11:15:15;;;;;;;0.98;0.90;;;;;;;11.60;77.00;97076.94;6195497;23;20492;-89
2022/09/19 11:18:09;;;;;;;3.50;1.33;;;;;;;11.46;77.87;97069.38;6220740;23;20016;-89
2022/09/19 11:43:45;;;;;;;8.55;1.70;;;;;;;11.47;80.80;97099.06;6213929;23;20024;-88
2022/09/19 11:51:26;;;;;;;6.25;1.77;;;;;;;11.47;80.13;97120.97;6222960;23;20031;-91
2022/09/19 11:54:15;;;;;;;3.00;1.75;;;;;;;11.01;80.44;97052.78;6171026;23;20019;-90
2022/09/19 11:57:05;;;;;;;1.75;1.05;;;;;;;11.27;80.78;97103.13;6193032;23;20086;-90
2022/09/19 12:08:21;;;;;;;2.05;0.98;;;;;;;11.31;81.41;97131.31;6097367;23;20022;-89
2022/09/19 12:11:08;;;;;;;1.52;1.20;;;;;;;11.20;81.38;97122.19;6097479;23;20010;-90
2022/09/19 12:16:12;;;;;;;2.03;0.95;;;;;;;11.04;81.86;97117.66;6097973;23;20014;-90
2022/09/19 12:18:42;;;;;;;3.30;1.00;;;;;;;11.17;82.15;97140.09;6074024;23;20053;-88
2022/09/19 12:21:15;;;;;;;4.30;1.17;;;;;;;10.93;82.07;97111.28;6098578;23;20062;-90
2022/09/19 12:36:04;;;;;;;3.17;1.10;;;;;;;11.24;80.25;97151.13;6271289;22;20080;-88
2022/09/19 12:44:03;;;;;;;1.20;1.10;;;;;;;11.31;79.82;97161.38;6255136;23;20070;-89
2022/09/19 12:47:22;;;;;;;3.63;1.00;;;;;;;11.31;78.91;97164.13;6229279;23;20015;-89
2022/09/19 12:54:58;;;;;;;1.48;1.08;;;;;;;11.35;78.04;97184.09;6124559;23;20029;-89
2022/09/19 13:09:54;;;;;;;3.60;0.98;;;;;;;11.40;76.21;97189.25;6254427;23;20523;-89
2022/09/19 13:36:10;;;;;;;2.63;1.00;;;;;;;11.04;78.23;97196.94;6123583;23;20018;-91
2022/09/19 13:38:58;;;;;;;2.92;1.00;;;;;;;11.17;78.57;97213.94;6124025;23;20018;-86
2022/09/19 13:55:41;;;;;;;12.15;1.05;;;;;;;11.18;79.20;97231.13;6118625;23;20071;-91
2022/09/19 14:25:19;;;;;;;2.45;0.80;;;;;;;11.13;76.54;97258.81;6240640;22;20096;-94
2022/09/19 14:40:19;;;;;;;2.17;0.98;;;;;;;11.29;76.32;97270.34;6099948;23;20006;-87
2022/09/19 14:43:29;;;;;;;4.50;0.80;;;;;;;11.29;76.04;97289.50;6170599;23;20051;-91
2022/09/19 14:46:46;;;;;;;6.40;0.73;;;;;;;11.27;75.73;97280.88;6189560;23;20037;-92
2022/09/19 14:53:29;;;;;;;2.72;0.90;;;;;;;11.34;75.27;97291.94;6245349;23;20020;-86
2022/09/19 14:56:38;;;;;;;2.67;0.90;;;;;;;11.37;75.89;97296.66;6217158;23;20492;-89
2022/09/19 15:00:44;;;;;;;2.05;0.93;;;;;;;11.36;73.98;97302.53;6215691;23;20054;-94
2022/09/19 15:04:40;;;;;;;9.60;1.30;;;;;;;11.24;75.28;97292.56;6242696;23;20004;-87
2022/09/19 15:10:38;;;;;;;3.85;1.00;;;;;;;11.29;76.07;97319.59;6092701;23;20031;-89
2022/09/19 15:13:33;;;;;;;5.07;1.00;;;;;;;11.28;76.41;97323.47;6093090;23;20023;-88
2022/09/19 15:17:09;;;;;;;4.50;0.80;;;;;;;11.24;76.56;97337.09;6094770;23;20007;-92
2022/09/19 15:19:42;;;;;;;3.90;0.80;;;;;;;11.24;76.18;97341.78;6091517;23;20002;-91
2022/09/19 15:22:55;;;;;;;3.90;1.23;;;;;;;11.23;76.35;97356.63;6155913;22;20000;-89
2022/09/19 15:25:35;;;;;;;5.85;1.27;;;;;;;11.27;75.71;97344.56;6216233;23;20004;-93
2022/09/19 15:28:58;;;;;;;1.38;0.88;;;;;;;11.27;75.86;97357.47;6218428;23;20036;-90
2022/09/19 15:35:32;;;;;;;2.13;0.80;;;;;;;11.29;74.70;97357.88;6122124;23;20037;-94
2022/09/19 15:38:38;;;;;;;1.80;0.68;;;;;;;11.28;74.87;97361.78;6096915;23;20053;-92
2022/09/19 15:41:12;;;;;;;1.10;0.68;;;;;;;11.15;74.60;97349.44;6039175;23;20026;-93
2022/09/19 15:46:26;;;;;;;1.38;0.80;;;;;;;11.25;75.58;97382.44;6125211;23;20017;-90
2022/09/19 15:49:27;;;;;;;5.30;1.00;;;;;;;11.27;75.35;97390.28;6100619;23;20003;-86
2022/09/19 15:52:34;;;;;;;1.35;0.80;;;;;;;11.23;75.31;97376.56;5980473;23;20008;-87
2022/09/19 15:55:02;;;;;;;2.72;0.88;;;;;;;11.26;75.12;97403.19;5994094;24;20024;-88
2022/09/19 15:57:32;;;;;;;1.13;0.93;;;;;;;11.11;74.78;97382.19;5974222;23;20048;-87
2022/09/19 16:00:19;;;;;;;1.45;1.00;;;;;;;11.29;74.99;97412.56;5993774;24;20020;-87
2022/09/19 16:03:07;;;;;;;2.38;1.02;;;;;;;11.27;74.90;97403.97;6133496;23;20029;-93
2022/09/19 16:05:36;;;;;;;6.03;1.70;;;;;;;11.22;75.28;97423.38;6082632;23;20026;-89
2022/09/19 16:11:36;;;;;;;9.60;1.23;;;;;;;11.11;76.76;97427.88;6127079;23;20052;-91
2022/09/19 16:39:36;;;;;;;6.43;1.25;;;;;;;11.05;76.38;97510.19;6078074;23;20088;-90
2022/09/19 16:42:11;;;;;;;4.47;1.63;;;;;;;11.01;75.94;97525.75;6125049;23;20061;-92
2022/09/19 16:48:37;;;;;;;1.10;0.90;;;;;;;10.93;76.18;97491.22;6124279;23;20024;-88
2022/09/19 16:54:04;;;;;;;7.55;1.30;;;;;;;10.74;75.83;97481.06;6136038;23;20009;-92
2022/09/19 16:56:31;;;;;;;1.60;0.90;;;;;;;11.08;75.53;97546.97;6190118;23;20470;-90
2022/09/19 16:59:00;;;;;;;2.80;1.00;;;;;;;10.81;74.95;97494.88;6200767;23;20085;-91
2022/09/19 17:01:30;;;;;;;1.33;0.95;;;;;;;11.16;75.16;97548.72;6220241;23;20023;-92
2022/09/19 17:07:57;;;;;;;1.48;1.00;;;;;;;10.76;74.43;97506.09;6246195;23;20087;-91
2022/09/19 17:10:48;;;;;;;1.00;0.80;;;;;;;11.18;75.03;97572.94;6220471;23;20046;-91
2022/09/19 17:16:51;;;;;;;1.10;1.00;;;;;;;10.94;74.75;97542.00;6230885;23;20031;-88
2022/09/19 17:19:17;;;;;;;2.67;0.93;;;;;;;10.89;74.85;97557.88;6193911;23;20550;-93
2022/09/19 17:21:46;;;;;;;5.05;1.10;;;;;;;10.81;74.77;97532.34;6247223;23;20024;-85
2022/09/19 17:28:16;;;;;;;5.75;1.10;;;;;;;10.95;73.90;97564.66;6134629;23;20442;-88
2022/09/19 17:30:45;;;;;;;2.47;1.20;;;;;;;11.20;74.11;97604.25;6195809;23;20048;-92
2022/09/19 17:33:39;;;;;;;2.25;1.00;;;;;;;11.22;73.38;97612.09;6225375;23;20020;-92
2022/09/19 17:45:36;;;;;;;6.93;1.00;;;;;;;11.26;72.94;97641.13;6213114;23;20098;-92
2022/09/19 17:48:03;;;;;;;1.13;0.93;;;;;;;11.18;72.46;97636.63;6188632;23;20016;-91
2022/09/19 17:50:32;;;;;;;2.38;1.10;;;;;;;11.17;73.18;97645.22;6162818;23;20044;-90
2022/09/19 17:56:57;;;;;;;1.35;0.88;;;;;;;11.23;72.75;97668.41;6190467;23;20031;-94
2022/09/19 17:59:24;;;;;;;2.22;1.10;;;;;;;11.22;72.86;97669.53;6202793;23;20412;-85
2022/09/19 18:04:37;;;;;;;5.82;2.00;;;;;;;11.15;73.80;97686.56;6206349;23;20126;-85
2022/09/19 18:07:06;;;;;;;2.17;0.85;;;;;;;11.10;73.20;97680.59;6199822;23;20016;-95
2022/09/19 18:09:32;;;;;;;4.88;0.95;;;;;;;11.09;73.13;97676.25;6198055;23;20024;-89
2022/09/19 18:11:59;;;;;;;1.42;0.98;;;;;;;11.14;73.01;97706.09;6194704;23;20055;-93
2022/09/19 18:14:26;;;;;;;1.50;1.00;;;;;;;11.11;73.18;97701.31;6185534;23;20052;-95
2022/09/19 18:22:37;;;;;;;1.45;1.15;;;;;;;10.92;73.40;97691.91;6245399;22;20071;-81
2022/09/19 18:25:07;;;;;;;2.00;1.13;;;;;;;11.13;72.68;97729.13;6220076;23;20024;-81
2022/09/19 18:27:34;;;;;;;2.40;1.05;;;;;;;11.11;72.65;97732.19;6221232;23;20103;-81
2022/09/19 18:30:01;;;;;;;3.22;2.08;;;;;;;11.11;72.61;97728.66;6248634;23;20054;-85
2022/09/19 18:32:29;;;;;;;4.03;1.38;;;;;;;11.23;71.71;97751.25;6194068;23;20050;-86
2022/09/19 18:34:55;;;;;;;14.07;1.60;;;;;;;11.32;72.00;97756.50;6175824;23;20020;-87
2022/09/19 18:37:23;;;;;;;5.50;1.20;;;;;;;11.20;71.57;97745.69;6148271;23;20028;-84
2022/09/19 18:39:52;;;;;;;3.70;1.17;;;;;;;11.36;71.14;97764.81;6252908;23;20012;-87
2022/09/19 18:42:18;;;;;;;7.17;1.27;;;;;;;11.34;70.43;97767.88;6225250;23;20016;-92
2022/09/19 18:44:44;;;;;;;3.03;1.02;;;;;;;11.35;70.54;97772.19;6232371;23;20007;-92
2022/09/19 18:47:58;;;;;;;8.00;1.35;;;;;;;10.92;69.97;97712.97;6255093;22;20024;-94
2022/09/19 18:52:05;;;;;;;0.80;0.80;;;;;;;11.40;69.22;97782.88;6203183;23;20039;-94
2022/09/19 18:54:39;;;;;;;1.52;1.20;;;;;;;11.47;69.52;97782.25;6251575;23;20028;-84
2022/09/19 19:00:02;;;;;;;1.15;1.02;;;;;;;11.43;69.31;97784.13;6254049;22;20032;-89
2022/09/19 19:02:34;;;;;;;1.85;1.30;;;;;;;11.55;69.69;97816.03;6248110;23;20038;-84
2022/09/19 19:05:07;;;;;;;7.63;1.50;;;;;;;11.51;70.28;97810.47;6203588;23;20048;-84
2022/09/19 19:07:33;;;;;;;7.65;2.00;;;;;;;11.46;71.17;97825.25;6225585;23;20059;-83
2022/09/19 19:10:01;;;;;;;6.85;1.77;;;;;;;11.46;70.73;97827.97;6219880;23;20023;-84
2022/09/19 19:12:30;;;;;;;5.03;1.70;;;;;;;11.39;71.23;97835.22;6227143;23;20016;-94
2022/09/19 19:15:02;;;;;;;3.92;1.33;;;;;;;11.43;71.13;97849.78;6250449;23;20020;-92
2022/09/19 19:17:31;;;;;;;2.40;1.73;;;;;;;11.52;71.09;97855.84;6177959;23;20454;-94
2022/09/19 19:19:59;;;;;;;4.85;1.70;;;;;;;11.38;70.93;97845.34;6251174;23;20387;-88
2022/09/19 19:22:25;;;;;;;5.00;1.48;;;;;;;11.56;71.25;97870.44;6174018;23;20017;-94
2022/09/19 19:25:08;;;;;;;3.95;1.20;;;;;;;11.50;71.53;97869.91;6176827;23;20016;-93
2022/09/19 19:27:38;;;;;;;1.38;1.00;;;;;;;11.47;70.81;97870.59;6226079;23;20023;-83
2022/09/19 19:30:19;;;;;;;6.80;1.88;;;;;;;11.57;71.22;97891.16;6222668;23;20008;-93
2022/09/19 19:32:45;;;;;;;5.97;1.50;;;;;;;11.60;71.38;97892.41;6249930;23;20500;-90
2022/09/19 19:35:13;;;;;;;1.20;1.10;;;;;;;11.51;71.16;97887.09;6198575;23;20028;-91
2022/09/19 19:37:40;;;;;;;2.63;1.20;;;;;;;11.56;71.34;97897.78;6195947;23;20023;-90
2022/09/19 19:40:09;;;;;;;2.25;1.30;;;;;;;11.57;71.82;97898.59;6173569;23;20040;-94
2022/09/19 19:47:07;;;;;;;4.57;1.43;;;;;;;11.43;73.31;97916.25;6238988;23;20082;-93
2022/09/19 19:53:48;;;;;;;6.93;1.42;;;;;;;10.80;75.37;97859.53;6257634;23;20031;-93
2022/09/19 19:56:36;;;;;;;6.65;1.90;;;;;;;11.09;76.33;97911.44;6225842;23;20079;-94
2022/09/19 20:04:11;;;;;;;1.65;1.50;;;;;;;11.11;77.17;97950.16;6128846;23;20432;-88
2022/09/19 20:26:47;;;;;;;4.05;2.30;;;;;;;10.74;77.85;97981.19;6129323;23;20073;-94
2022/09/19 20:29:19;;;;;;;4.63;1.90;;;;;;;10.94;78.45;98016.91;6105210;23;20018;-91
2022/09/19 21:19:39;;;;;;;2.85;1.70;;;;;;;10.86;81.16;98072.50;6247007;23;20085;-94
2022/09/19 21:26:54;;;;;;;6.00;1.92;;;;;;;11.03;81.36;98099.59;6248272;23;20069;-89
2022/09/19 21:29:29;;;;;;;2.65;1.75;;;;;;;10.62;81.01;98043.28;6173433;23;20458;-90
2022/09/19 21:32:16;;;;;;;3.13;1.90;;;;;;;10.92;81.49;98101.97;6221618;23;20039;-87
2022/09/19 21:51:30;;;;;;;2.80;2.03;;;;;;;11.14;82.43;98163.59;6246182;23;20608;-95
2022/09/19 21:58:11;;;;;;;4.57;1.90;;;;;;;10.80;81.89;98102.03;6126003;23;20100;-93
2022/09/19 22:01:15;;;;;;;3.20;1.48;;;;;;;11.11;81.38;98158.81;6067516;23;20118;-92
2022/09/19 22:14:22;;;;;;;2.42;1.77;;;;;;;11.19;81.08;98190.72;6248846;23;20361;-94
2022/09/19 22:18:00;;;;;;;7.18;1.60;;;;;;;11.23;81.03;98188.09;6220655;23;20023;-91
2022/09/19 22:25:22;;;;;;;4.95;1.80;;;;;;;10.76;80.19;98142.91;6246956;23;20353;-88
2022/09/19 23:04:30;;;;;;;4.15;1.75;;;;;;;11.39;77.99;98322.22;5898172;24;20029;-93
2022/09/19 23:11:28;;;;;;;8.48;1.58;;;;;;;11.32;77.58;98302.84;5873708;24;20030;-92
2022/09/19 23:16:28;;;;;;;2.08;1.42;;;;;;;11.45;77.63;98335.31;6096751;23;20021;-93
2022/09/19 23:35:54;;;;;;;2.25;1.30;;;;;;;11.69;76.91;98370.13;6273307;22;20031;-93
